Time;durP1;ratioP1;P1;durP2;ratioP2;P2;SDS_P1;SDS_P2;PMS_P1;PMS_P2;Temp;Humidity;BMP_temperature;BMP_pressure;BME280_temperature;BME280_humidity;BME280_pressure;Samples;Min_cycle;Max_cycle;Signal;HPM_P1;HPM_P2
2022/10/31 00:00:15;;;;;;;8.07;3.85;;;18.10;51.90;;;;;;5028219;28;20551;-53
2022/10/31 00:02:43;;;;;;;9.48;4.20;;;18.00;51.90;;;;;;5026723;28;20053;-53
2022/10/31 00:05:10;;;;;;;9.18;3.97;;;18.00;51.90;;;;;;5026013;28;20385;-50
2022/10/31 00:07:38;;;;;;;9.95;3.88;;;18.00;51.90;;;;;;5029650;28;20486;-50
2022/10/31 00:10:07;;;;;;;6.68;3.67;;;17.90;51.90;;;;;;5027903;28;20053;-53
2022/10/31 00:12:34;;;;;;;9.82;3.80;;;17.90;52.00;;;;;;5028282;28;20084;-54
2022/10/31 00:15:02;;;;;;;11.07;3.88;;;17.90;52.10;;;;;;5029922;28;20057;-53
2022/10/31 00:17:29;;;;;;;8.68;4.30;;;17.80;52.00;;;;;;5028738;28;20053;-54
2022/10/31 00:19:56;;;;;;;9.82;3.78;;;17.80;52.10;;;;;;5028601;28;20060;-53
2022/10/31 00:22:23;;;;;;;12.70;3.80;;;17.80;52.10;;;;;;5023268;28;20052;-50
2022/10/31 00:24:52;;;;;;;7.10;4.38;;;17.80;52.10;;;;;;5023448;28;20501;-52
2022/10/31 00:27:19;;;;;;;12.50;4.28;;;17.70;52.10;;;;;;5027628;28;20065;-53
2022/10/31 00:29:46;;;;;;;9.80;4.55;;;17.70;52.20;;;;;;5028573;28;20060;-53
2022/10/31 00:32:13;;;;;;;11.90;5.07;;;17.60;52.30;;;;;;5026266;28;20054;-53
2022/10/31 00:34:41;;;;;;;7.68;3.72;;;17.60;52.80;;;;;;5032689;28;20060;-53
2022/10/31 00:37:08;;;;;;;9.88;4.35;;;17.60;52.50;;;;;;5031305;28;20053;-51
2022/10/31 00:39:35;;;;;;;10.40;4.13;;;17.60;52.60;;;;;;5033365;28;20072;-53
2022/10/31 00:42:04;;;;;;;6.28;3.67;;;17.50;52.70;;;;;;5028971;28;20492;-54
2022/10/31 00:44:31;;;;;;;9.73;4.22;;;17.50;52.70;;;;;;5028636;28;20053;-53
2022/10/31 00:46:58;;;;;;;11.13;4.38;;;17.50;52.70;;;;;;5031685;28;20049;-52
2022/10/31 00:49:25;;;;;;;7.68;4.10;;;17.50;52.80;;;;;;5032313;28;20060;-49
2022/10/31 00:51:53;;;;;;;7.80;3.65;;;17.40;52.80;;;;;;5031856;28;20094;-53
2022/10/31 00:54:20;;;;;;;8.15;4.00;;;17.40;52.80;;;;;;5032066;28;20501;-53
2022/10/31 00:56:47;;;;;;;8.75;3.92;;;17.40;52.80;;;;;;5031966;28;20053;-54
2022/10/31 00:59:15;;;;;;;8.10;4.03;;;17.40;52.90;;;;;;5032735;28;20057;-53
2022/10/31 01:01:43;;;;;;;8.50;3.95;;;17.40;52.90;;;;;;5027865;28;20058;-52
2022/10/31 01:04:10;;;;;;;6.60;3.60;;;17.30;52.90;;;;;;5031797;28;20068;-53
2022/10/31 01:06:37;;;;;;;9.10;3.75;;;17.30;53.00;;;;;;5031728;28;20061;-53
2022/10/31 01:09:04;;;;;;;6.50;3.50;;;17.30;53.00;;;;;;5032396;28;20057;-51
2022/10/31 01:11:32;;;;;;;5.88;4.00;;;17.30;53.10;;;;;;5029267;28;20053;-53
2022/10/31 01:13:59;;;;;;;12.45;4.65;;;17.30;53.20;;;;;;5033383;28;20053;-53
2022/10/31 01:16:29;;;;;;;7.00;4.05;;;17.20;53.20;;;;;;5031437;28;20049;-51
2022/10/31 01:18:56;;;;;;;6.55;3.85;;;17.20;53.20;;;;;;5032288;28;20064;-53
2022/10/31 01:21:26;;;;;;;13.23;4.20;;;17.20;53.30;;;;;;5029804;28;20052;-54
2022/10/31 01:23:55;;;;;;;7.60;3.90;;;17.20;53.40;;;;;;5030509;28;20489;-53
2022/10/31 01:26:24;;;;;;;6.45;3.95;;;17.20;53.40;;;;;;5030895;28;20060;-53
2022/10/31 01:28:54;;;;;;;8.85;3.80;;;17.20;53.40;;;;;;5032441;28;20057;-46
2022/10/31 01:31:23;;;;;;;7.05;3.78;;;17.10;53.40;;;;;;5028376;28;20041;-48
2022/10/31 01:33:52;;;;;;;8.15;3.85;;;17.10;53.40;;;;;;5032992;28;20425;-53
2022/10/31 01:36:21;;;;;;;9.68;3.80;;;17.10;53.50;;;;;;5030729;28;20509;-53
2022/10/31 01:38:49;;;;;;;7.40;4.03;;;17.10;53.50;;;;;;5031738;28;20493;-54
2022/10/31 01:41:19;;;;;;;7.35;4.15;;;17.10;53.50;;;;;;5028363;28;20053;-53
2022/10/31 01:43:49;;;;;;;8.55;4.22;;;17.10;53.50;;;;;;5029822;28;20068;-53
2022/10/31 01:46:21;;;;;;;8.73;4.03;;;17.10;53.50;;;;;;5029932;28;20504;-53
2022/10/31 01:48:49;;;;;;;9.63;4.18;;;17.00;53.50;;;;;;5030453;28;20053;-53
2022/10/31 01:51:21;;;;;;;8.55;4.10;;;17.00;53.50;;;;;;5025709;28;20065;-51
2022/10/31 01:53:51;;;;;;;10.00;3.80;;;17.00;53.50;;;;;;5027800;28;20054;-53
2022/10/31 01:56:19;;;;;;;10.57;4.57;;;16.90;53.50;;;;;;5027125;28;20045;-53
2022/10/31 01:58:47;;;;;;;9.07;4.07;;;16.90;53.60;;;;;;5029226;28;20524;-53
2022/10/31 02:01:16;;;;;;;6.32;3.53;;;16.90;53.80;;;;;;5025784;28;20072;-54
2022/10/31 02:03:45;;;;;;;7.93;3.95;;;16.90;53.90;;;;;;5026886;28;20060;-54
2022/10/31 02:06:26;;;;;;;8.52;4.43;;;16.80;53.90;;;;;;5026882;28;20050;-52
2022/10/31 02:08:54;;;;;;;13.15;4.35;;;16.80;53.90;;;;;;5028284;28;20057;-51
2022/10/31 02:11:21;;;;;;;9.93;4.35;;;16.80;53.90;;;;;;5025704;28;20057;-52
2022/10/31 02:13:49;;;;;;;12.43;4.85;;;16.80;54.50;;;;;;5029212;28;20060;-52
2022/10/31 02:16:16;;;;;;;10.75;4.20;;;16.70;54.00;;;;;;5028481;28;20053;-53
2022/10/31 02:18:43;;;;;;;10.00;4.85;;;16.80;54.10;;;;;;5024272;28;20080;-51
2022/10/31 02:21:18;;;;;;;9.30;4.25;;;16.70;54.10;;;;;;5023055;28;20057;-54
2022/10/31 02:24:16;;;;;;;9.35;4.13;;;16.70;54.10;;;;;;5024921;28;20053;-51
2022/10/31 02:26:53;;;;;;;13.85;4.97;;;16.70;54.10;;;;;;5023688;28;20450;-53
2022/10/31 02:29:48;;;;;;;8.95;4.40;;;16.70;54.10;;;;;;5018660;28;20045;-52
2022/10/31 02:32:25;;;;;;;10.45;4.63;;;16.70;54.20;;;;;;5020710;28;20046;-53
2022/10/31 02:34:58;;;;;;;10.82;4.32;;;16.60;54.20;;;;;;5023500;28;20061;-51
2022/10/31 02:37:32;;;;;;;9.10;4.22;;;16.60;54.30;;;;;;5024293;28;20497;-50
2022/10/31 02:40:09;;;;;;;8.55;4.47;;;16.60;54.30;;;;;;5022401;28;20500;-50
2022/10/31 02:42:43;;;;;;;8.77;4.38;;;16.50;54.40;;;;;;5020051;28;20053;-51
2022/10/31 02:45:14;;;;;;;;;;;16.60;54.50;;;;;;5027937;28;20064;-54
2022/10/31 02:47:44;;;;;;;11.23;4.65;;;16.60;54.30;;;;;;5028969;28;19928;-52
2022/10/31 02:50:15;;;;;;;7.03;4.15;;;16.60;54.20;;;;;;5022502;28;20057;-51
2022/10/31 02:52:43;;;;;;;10.52;3.90;;;16.60;54.30;;;;;;5028299;28;20052;-53
2022/10/31 02:55:13;;;;;;;11.77;4.30;;;16.50;54.30;;;;;;5024656;28;20409;-53
2022/10/31 02:57:42;;;;;;;10.23;4.40;;;16.50;54.40;;;;;;5028351;28;20049;-52
2022/10/31 03:00:10;;;;;;;9.48;4.43;;;16.50;54.40;;;;;;5027168;28;20057;-52
2022/10/31 03:02:59;;;;;;;11.52;4.40;;;16.40;54.40;;;;;;5025999;28;20064;-52
2022/10/31 03:05:49;;;;;;;10.45;5.05;;;16.40;54.50;;;;;;5026570;28;20076;-54
2022/10/31 03:08:22;;;;;;;9.88;4.65;;;16.40;55.00;;;;;;5025688;28;20056;-51
2022/10/31 03:10:55;;;;;;;9.75;4.53;;;16.40;54.50;;;;;;5026592;28;20049;-53
2022/10/31 03:13:31;;;;;;;12.05;4.63;;;16.40;54.60;;;;;;5025950;28;20057;-52
2022/10/31 03:16:08;;;;;;;11.32;4.82;;;16.30;54.60;;;;;;5026424;28;20129;-52
2022/10/31 03:18:40;;;;;;;12.00;5.95;;;16.30;54.80;;;;;;5025387;28;20124;-53
2022/10/31 03:21:13;;;;;;;9.57;5.00;;;16.30;54.80;;;;;;5023529;28;20473;-54
2022/10/31 03:23:42;;;;;;;13.90;4.88;;;16.20;54.80;;;;;;5022303;28;20061;-50
2022/10/31 03:26:12;;;;;;;10.18;4.50;;;16.30;55.30;;;;;;5023752;28;20057;-54
2022/10/31 03:28:43;;;;;;;8.75;4.53;;;16.30;54.90;;;;;;5024575;28;20057;-54
2022/10/31 03:31:14;;;;;;;8.80;4.55;;;16.20;54.90;;;;;;5026037;28;20053;-54
2022/10/31 03:33:45;;;;;;;8.27;4.55;;;16.20;55.00;;;;;;5025589;28;20062;-52
2022/10/31 03:36:15;;;;;;;11.85;5.10;;;16.20;55.10;;;;;;5025473;28;20057;-53
2022/10/31 03:38:43;;;;;;;14.85;4.93;;;16.20;55.10;;;;;;5025169;28;20053;-53
2022/10/31 03:41:15;;;;;;;8.75;4.57;;;16.20;55.20;;;;;;5024334;28;20064;-53
2022/10/31 03:43:49;;;;;;;8.48;4.93;;;16.20;55.20;;;;;;5026074;28;20093;-53
2022/10/31 03:46:16;;;;;;;12.50;6.30;;;16.10;55.20;;;;;;5020927;28;20068;-45
2022/10/31 03:48:44;;;;;;;10.18;5.57;;;16.10;55.10;;;;;;5022475;28;20045;-45
2022/10/31 03:51:17;;;;;;;10.93;5.80;;;16.10;55.10;;;;;;5023208;28;20057;-41
2022/10/31 03:53:52;;;;;;;8.80;5.22;;;16.10;55.20;;;;;;5021325;28;20525;-44
2022/10/31 03:56:24;;;;;;;11.48;4.72;;;16.10;55.30;;;;;;5018858;28;20045;-44
2022/10/31 03:58:59;;;;;;;9.23;5.20;;;16.10;55.30;;;;;;5023818;28;20072;-44
2022/10/31 04:01:30;;;;;;;14.02;5.22;;;16.00;55.30;;;;;;5022414;28;20053;-45
2022/10/31 04:03:59;;;;;;;12.98;5.63;;;16.00;55.30;;;;;;5021147;28;20057;-45
2022/10/31 04:06:27;;;;;;;12.35;5.30;;;16.00;55.30;;;;;;5020632;28;20053;-42
2022/10/31 04:08:59;;;;;;;13.30;5.63;;;16.00;55.30;;;;;;5020809;28;20053;-49
2022/10/31 04:11:32;;;;;;;10.90;5.30;;;16.00;55.50;;;;;;5021809;28;20064;-45
2022/10/31 04:14:01;;;;;;;8.05;5.32;;;16.00;55.50;;;;;;5023242;28;20061;-47
2022/10/31 04:16:29;;;;;;;15.25;5.50;;;16.00;55.50;;;;;;5021041;28;20065;-45
2022/10/31 04:18:58;;;;;;;11.07;5.38;;;15.90;55.50;;;;;;5023140;28;20064;-46
2022/10/31 04:21:29;;;;;;;13.57;5.78;;;15.90;55.60;;;;;;5020969;28;20140;-44
2022/10/31 04:23:57;;;;;;;8.55;4.97;;;15.90;55.60;;;;;;5021049;28;20068;-47
2022/10/31 04:26:24;;;;;;;8.82;4.82;;;15.90;55.60;;;;;;5019268;28;20056;-50
2022/10/31 04:28:52;;;;;;;9.38;5.93;;;15.90;55.60;;;;;;5023084;28;20067;-43
2022/10/31 04:31:19;;;;;;;13.80;7.35;;;15.90;55.70;;;;;;5021381;28;20515;-44
2022/10/31 04:33:47;;;;;;;11.73;5.90;;;15.90;55.70;;;;;;5023390;28;20057;-44
2022/10/31 04:36:15;;;;;;;9.00;5.30;;;15.80;55.60;;;;;;5021168;28;20524;-44
2022/10/31 04:38:42;;;;;;;11.00;5.70;;;15.80;55.70;;;;;;5020197;28;20049;-44
2022/10/31 04:41:10;;;;;;;9.50;5.00;;;15.80;55.70;;;;;;5018561;28;20068;-45
2022/10/31 04:43:37;;;;;;;9.38;4.88;;;15.80;55.70;;;;;;5022245;28;20524;-46
2022/10/31 04:46:04;;;;;;;10.50;4.85;;;15.80;55.80;;;;;;5021849;28;20077;-45
2022/10/31 04:48:31;;;;;;;19.17;5.43;;;15.70;55.80;;;;;;5022861;28;20057;-47
2022/10/31 04:51:02;;;;;;;13.10;5.10;;;15.80;55.80;;;;;;5020789;28;20409;-43
2022/10/31 04:53:30;;;;;;;9.40;5.22;;;15.80;55.90;;;;;;5021099;28;20128;-45
2022/10/31 04:56:00;;;;;;;11.35;5.70;;;15.70;55.90;;;;;;5019914;28;20505;-45
2022/10/31 04:58:28;;;;;;;11.00;5.45;;;15.70;55.90;;;;;;5020848;28;20050;-43
2022/10/31 05:00:55;;;;;;;16.42;7.80;;;15.70;55.90;;;;;;5021016;28;20061;-48
2022/10/31 05:03:23;;;;;;;32.88;14.52;;;15.70;56.00;;;;;;5021693;28;20527;-46
2022/10/31 05:05:50;;;;;;;20.10;9.18;;;15.70;56.00;;;;;;5021794;28;20551;-46
2022/10/31 05:08:17;;;;;;;12.57;7.30;;;15.70;56.10;;;;;;5021127;28;20486;-45
2022/10/31 05:10:46;;;;;;;10.60;6.03;;;15.70;56.00;;;;;;5020384;28;20065;-46
2022/10/31 05:13:14;;;;;;;14.57;5.60;;;15.70;56.00;;;;;;5021595;28;20061;-42
2022/10/31 05:15:41;;;;;;;10.27;5.15;;;15.60;56.00;;;;;;5019387;28;20053;-47
2022/10/31 05:18:09;;;;;;;14.30;5.55;;;15.70;56.00;;;;;;5018434;28;20068;-47
2022/10/31 05:20:36;;;;;;;10.45;5.30;;;15.60;56.00;;;;;;5023202;28;20477;-45
2022/10/31 05:23:03;;;;;;;13.93;6.07;;;15.60;56.00;;;;;;5024325;28;20076;-42
2022/10/31 05:25:30;;;;;;;12.00;5.88;;;15.60;56.00;;;;;;5023317;28;20061;-44
2022/10/31 05:27:59;;;;;;;14.73;5.80;;;15.60;56.10;;;;;;5026087;28;20045;-43
2022/10/31 05:30:29;;;;;;;11.27;5.50;;;15.60;56.10;;;;;;5024683;28;20088;-43
2022/10/31 05:32:56;;;;;;;13.15;5.47;;;15.60;56.20;;;;;;5025650;28;20076;-46
2022/10/31 05:35:26;;;;;;;10.20;5.72;;;15.50;56.20;;;;;;5023478;28;20417;-44
2022/10/31 05:37:53;;;;;;;10.77;5.65;;;15.50;56.20;;;;;;5023509;28;20068;-46
2022/10/31 05:40:22;;;;;;;10.02;5.35;;;15.50;56.20;;;;;;5024102;28;20054;-45
2022/10/31 05:42:52;;;;;;;12.75;6.32;;;15.60;56.30;;;;;;5025504;28;20060;-44
2022/10/31 05:45:22;;;;;;;13.27;5.85;;;15.50;56.30;;;;;;5024699;28;20064;-43
2022/10/31 05:47:54;;;;;;;9.45;5.47;;;15.60;56.40;;;;;;5025994;28;20046;-47
2022/10/31 05:50:22;;;;;;;38.88;17.75;;;15.50;56.40;;;;;;5023843;28;20053;-42
2022/10/31 05:52:55;;;;;;;56.55;25.80;;;15.50;56.40;;;;;;5023317;28;20397;-42
2022/10/31 05:55:22;;;;;;;22.45;10.85;;;15.50;56.50;;;;;;5022446;28;20049;-47
2022/10/31 05:57:50;;;;;;;17.40;7.75;;;15.50;56.40;;;;;;5023538;28;20049;-46
2022/10/31 06:00:18;;;;;;;10.82;5.82;;;15.50;56.90;;;;;;5011380;28;20052;-42
2022/10/31 06:02:47;;;;;;;10.40;5.88;;;15.50;56.50;;;;;;5017836;28;20049;-43
2022/10/31 06:05:14;;;;;;;10.80;5.55;;;15.50;56.60;;;;;;5011860;28;20561;-49
2022/10/31 06:07:42;;;;;;;13.80;5.57;;;15.50;56.50;;;;;;5022665;28;20053;-47
2022/10/31 06:10:10;;;;;;;12.40;6.20;;;15.50;56.50;;;;;;5023275;28;20061;-46
2022/10/31 06:12:38;;;;;;;9.45;5.43;;;15.50;56.60;;;;;;5025109;28;20594;-45
2022/10/31 06:15:06;;;;;;;8.63;5.32;;;15.50;56.60;;;;;;5023822;28;20060;-46
2022/10/31 06:17:34;;;;;;;11.57;5.93;;;15.40;56.50;;;;;;5019754;28;20064;-47
2022/10/31 06:20:04;;;;;;;11.88;5.70;;;15.40;56.50;;;;;;5020256;28;20061;-46
2022/10/31 06:22:32;;;;;;;9.88;5.65;;;15.40;56.60;;;;;;5021239;28;20057;-46
2022/10/31 06:24:59;;;;;;;11.90;6.20;;;15.40;56.60;;;;;;5023415;28;20516;-43
2022/10/31 06:27:27;;;;;;;11.63;5.70;;;15.40;56.60;;;;;;5022478;28;20045;-46
2022/10/31 06:29:54;;;;;;;10.63;5.38;;;15.40;56.60;;;;;;5023025;28;20052;-50
2022/10/31 06:32:22;;;;;;;9.98;5.43;;;15.40;56.60;;;;;;5016143;28;20061;-46
2022/10/31 06:34:50;;;;;;;9.27;5.55;;;15.40;56.70;;;;;;5018609;28;20053;-48
2022/10/31 06:37:18;;;;;;;9.35;5.70;;;15.40;56.70;;;;;;5015309;28;20053;-43
2022/10/31 06:39:45;;;;;;;11.15;4.97;;;15.40;56.80;;;;;;5015098;28;20045;-43
2022/10/31 06:42:13;;;;;;;10.07;5.93;;;15.40;56.80;;;;;;5021386;28;20069;-45
2022/10/31 06:44:40;;;;;;;11.25;5.65;;;15.40;56.80;;;;;;5023313;28;20062;-49
2022/10/31 06:47:07;;;;;;;8.18;5.43;;;15.40;56.90;;;;;;5021915;28;20398;-50
2022/10/31 06:49:34;;;;;;;10.35;5.90;;;15.40;56.90;;;;;;5019515;28;20053;-48
2022/10/31 06:52:01;;;;;;;11.55;5.82;;;15.40;56.90;;;;;;5016326;28;20057;-50
2022/10/31 06:54:30;;;;;;;11.93;5.72;;;15.30;56.90;;;;;;5017127;28;20064;-46
2022/10/31 06:56:57;;;;;;;11.98;6.10;;;15.40;57.00;;;;;;5020162;28;20057;-42
2022/10/31 06:59:24;;;;;;;8.88;5.28;;;15.40;57.10;;;;;;5011135;28;20515;-47
2022/10/31 07:01:52;;;;;;;13.57;5.88;;;15.40;57.10;;;;;;5014832;28;20049;-44
2022/10/31 07:04:19;;;;;;;9.43;5.80;;;15.40;57.10;;;;;;5021791;28;20532;-44
2022/10/31 07:06:46;;;;;;;13.32;6.80;;;15.40;57.10;;;;;;5021191;28;20050;-48
2022/10/31 07:09:13;;;;;;;14.27;5.97;;;15.40;57.20;;;;;;5022050;28;20068;-44
2022/10/31 07:11:42;;;;;;;9.90;5.60;;;15.40;57.20;;;;;;5015570;28;20485;-45
2022/10/31 07:14:09;;;;;;;11.27;5.53;;;15.40;57.30;;;;;;5021614;28;20060;-45
2022/10/31 07:16:36;;;;;;;10.98;5.82;;;15.40;57.30;;;;;;5024310;28;20057;-47
2022/10/31 07:19:04;;;;;;;11.45;6.05;;;15.50;57.40;;;;;;5019355;28;20053;-46
2022/10/31 07:21:31;;;;;;;10.10;5.70;;;15.50;57.40;;;;;;5018372;28;20058;-46
2022/10/31 07:23:58;;;;;;;8.45;5.53;;;15.50;57.40;;;;;;5019583;28;20062;-50
2022/10/31 07:26:25;;;;;;;12.93;6.30;;;15.50;57.40;;;;;;5022773;28;20060;-46
2022/10/31 07:28:54;;;;;;;11.85;5.85;;;15.50;57.50;;;;;;5024140;28;20056;-46
2022/10/31 07:31:21;;;;;;;9.23;5.47;;;15.60;57.50;;;;;;5020702;28;20409;-44
2022/10/31 07:33:48;;;;;;;63.40;26.17;;;15.50;57.50;;;;;;5015286;28;20056;-48
2022/10/31 07:36:16;;;;;;;25.05;11.63;;;15.60;57.60;;;;;;5022935;28;20088;-50
2022/10/31 07:38:43;;;;;;;17.55;8.27;;;15.60;57.60;;;;;;5022892;28;20049;-48
2022/10/31 07:41:10;;;;;;;15.55;7.30;;;15.60;57.60;;;;;;5022168;28;20422;-47
2022/10/31 07:43:37;;;;;;;16.13;6.80;;;15.70;57.60;;;;;;5021902;28;20486;-45
2022/10/31 07:46:06;;;;;;;13.73;6.53;;;15.70;57.60;;;;;;5019621;28;20060;-44
2022/10/31 07:48:33;;;;;;;11.57;6.30;;;15.70;57.70;;;;;;5021479;28;20056;-44
2022/10/31 07:51:00;;;;;;;17.92;5.93;;;15.70;57.60;;;;;;5019254;28;20056;-45
2022/10/31 07:53:28;;;;;;;14.35;6.40;;;15.70;57.60;;;;;;5022539;28;20053;-49
2022/10/31 07:55:55;;;;;;;10.07;5.82;;;15.80;57.70;;;;;;5018457;28;20699;-49
2022/10/31 07:58:22;;;;;;;16.17;7.38;;;15.80;57.70;;;;;;5020070;28;20053;-48
2022/10/31 08:00:49;;;;;;;17.05;6.68;;;15.80;57.70;;;;;;5021302;28;20489;-47
2022/10/31 08:03:20;;;;;;;16.83;6.35;;;15.80;57.70;;;;;;5021577;28;20406;-43
2022/10/31 08:05:47;;;;;;;15.02;6.20;;;15.80;57.80;;;;;;5021906;28;20506;-49
2022/10/31 08:08:15;;;;;;;15.75;6.72;;;15.90;57.70;;;;;;5023186;28;20053;-44
2022/10/31 08:10:43;;;;;;;10.43;5.63;;;15.90;57.70;;;;;;5017525;28;20057;-51
2022/10/31 08:13:12;;;;;;;10.70;6.32;;;15.90;57.70;;;;;;5019748;28;20076;-46
2022/10/31 08:15:41;;;;;;;9.40;6.22;;;15.90;57.70;;;;;;5017187;28;20053;-47
2022/10/31 08:18:13;;;;;;;14.70;5.93;;;16.00;57.80;;;;;;5015843;28;20053;-44
2022/10/31 08:20:42;;;;;;;12.07;5.82;;;16.00;57.80;;;;;;5018363;28;20046;-49
2022/10/31 08:23:10;;;;;;;14.95;6.32;;;16.00;57.80;;;;;;5016895;28;20653;-47
2022/10/31 08:25:38;;;;;;;75.88;11.15;;;16.00;57.80;;;;;;5016199;28;20076;-50
2022/10/31 08:28:06;;;;;;;375.17;42.47;;;16.00;57.80;;;;;;5019271;28;20056;-47
2022/10/31 08:30:35;;;;;;;30.63;10.18;;;16.10;57.80;;;;;;5014952;28;20729;-49
2022/10/31 08:33:04;;;;;;;16.15;6.95;;;16.10;57.80;;;;;;5023139;28;20076;-47
2022/10/31 08:35:32;;;;;;;13.82;7.15;;;16.10;57.90;;;;;;5022125;28;20432;-48
2022/10/31 08:38:02;;;;;;;12.95;6.30;;;16.20;57.90;;;;;;5022219;28;20049;-49
2022/10/31 08:40:30;;;;;;;14.18;6.80;;;16.20;57.90;;;;;;5017245;28;20053;-45
2022/10/31 08:43:02;;;;;;;12.68;6.18;;;16.20;58.00;;;;;;5021301;28;20053;-49
2022/10/31 08:45:30;;;;;;;19.02;7.28;;;16.20;58.00;;;;;;5021270;28;20061;-46
2022/10/31 08:47:59;;;;;;;14.27;6.55;;;16.30;58.10;;;;;;5018355;28;20056;-49
2022/10/31 08:50:27;;;;;;;17.75;6.65;;;16.30;58.00;;;;;;5018562;28;20049;-46
2022/10/31 08:53:00;;;;;;;11.75;6.22;;;16.30;58.00;;;;;;5020826;28;20053;-52
2022/10/31 08:55:28;;;;;;;10.23;6.28;;;16.40;58.00;;;;;;5024288;28;20516;-45
2022/10/31 08:57:56;;;;;;;13.13;6.57;;;16.40;58.00;;;;;;5025634;28;20416;-47
2022/10/31 09:00:24;;;;;;;11.25;6.63;;;16.40;58.00;;;;;;5019794;28;20057;-48
2022/10/31 09:02:56;;;;;;;10.20;5.75;;;16.50;58.10;;;;;;5025042;28;20061;-47
2022/10/31 09:05:23;;;;;;;12.25;5.70;;;16.50;58.10;;;;;;5022307;28;20045;-44
2022/10/31 09:07:51;;;;;;;12.63;6.50;;;16.60;58.20;;;;;;5026116;28;20060;-44
2022/10/31 09:10:18;;;;;;;11.65;6.13;;;16.60;58.20;;;;;;5017980;28;21362;-46
2022/10/31 09:12:46;;;;;;;10.82;6.18;;;16.60;58.20;;;;;;5025098;28;20053;-50
2022/10/31 09:15:14;;;;;;;10.60;6.25;;;16.70;58.20;;;;;;5020402;28;20524;-48
2022/10/31 09:17:47;;;;;;;12.13;5.95;;;16.70;58.20;;;;;;5022039;28;20050;-47
2022/10/31 09:20:14;;;;;;;12.38;6.15;;;16.80;58.20;;;;;;5019739;28;20824;-49
2022/10/31 09:22:43;;;;;;;21.55;6.32;;;16.80;58.10;;;;;;5022616;28;20056;-47
2022/10/31 09:25:10;;;;;;;14.00;6.55;;;16.80;58.20;;;;;;5023896;28;22080;-46
2022/10/31 09:27:37;;;;;;;14.70;6.13;;;16.90;58.20;;;;;;5025078;28;20058;-46
2022/10/31 09:30:07;;;;;;;14.25;5.93;;;16.90;58.20;;;;;;5022214;28;20128;-45
2022/10/31 09:32:34;;;;;;;14.73;7.13;;;17.00;58.30;;;;;;5018530;28;20053;-45
2022/10/31 09:35:01;;;;;;;18.05;6.90;;;17.00;58.20;;;;;;5021696;28;20057;-50
2022/10/31 09:37:28;;;;;;;10.48;6.63;;;17.10;58.30;;;;;;5020022;28;20076;-47
2022/10/31 09:39:56;;;;;;;12.88;6.85;;;17.10;58.20;;;;;;5025247;28;21294;-50
2022/10/31 09:42:38;;;;;;;13.02;6.40;;;17.10;58.20;;;;;;5022871;28;20584;-46
2022/10/31 09:45:12;;;;;;;15.38;6.47;;;17.20;58.30;;;;;;5019042;28;20045;-47
2022/10/31 09:47:53;;;;;;;10.38;5.80;;;17.20;58.20;;;;;;5020064;28;20045;-48
2022/10/31 09:50:23;;;;;;;12.63;6.60;;;17.30;58.30;;;;;;5019336;28;20485;-44
2022/10/31 09:52:58;;;;;;;9.88;5.93;;;17.30;58.20;;;;;;5024999;28;20057;-45
2022/10/31 09:55:32;;;;;;;10.40;6.10;;;17.30;58.10;;;;;;5024919;28;20049;-50
2022/10/31 09:58:00;;;;;;;;;;;17.40;58.10;;;;;;5025761;28;20058;-50
2022/10/31 10:00:31;;;;;;;12.25;5.53;;;17.50;58.10;;;;;;5021602;28;19925;-43
2022/10/31 10:03:10;;;;;;;9.43;5.50;;;17.50;57.90;;;;;;5019286;28;20670;-49
2022/10/31 10:05:42;;;;;;;10.57;5.93;;;17.50;58.00;;;;;;5022387;28;20405;-47
2022/10/31 10:08:13;;;;;;;13.27;6.03;;;17.50;58.00;;;;;;5019891;28;20060;-47
2022/10/31 10:10:50;;;;;;;14.02;6.28;;;17.60;58.10;;;;;;5022613;28;20488;-47
2022/10/31 10:13:45;;;;;;;14.25;5.88;;;17.60;58.20;;;;;;5023881;28;20520;-46
2022/10/31 10:16:40;;;;;;;9.73;5.82;;;17.60;58.20;;;;;;5021804;28;20045;-45
2022/10/31 10:19:16;;;;;;;;;;;17.70;58.20;;;;;;5024733;28;20505;-47
2022/10/31 10:21:51;;;;;;;14.48;5.65;;;17.70;58.10;;;;;;5018550;28;19921;-49
2022/10/31 10:24:33;;;;;;;15.40;6.30;;;17.80;58.00;;;;;;5018167;28;20733;-45
2022/10/31 10:27:11;;;;;;;11.77;5.70;;;17.80;58.10;;;;;;5019539;28;20056;-49
2022/10/31 10:29:45;;;;;;;12.23;5.47;;;17.90;58.20;;;;;;5022761;28;20405;-46
2022/10/31 10:32:21;;;;;;;12.80;5.82;;;17.90;58.10;;;;;;5020581;28;20053;-46
2022/10/31 10:34:52;;;;;;;17.55;5.45;;;17.90;58.10;;;;;;5022437;28;20049;-50
2022/10/31 10:37:29;;;;;;;9.82;5.43;;;17.90;58.00;;;;;;5023028;28;20474;-47
2022/10/31 10:40:02;;;;;;;13.27;6.20;;;18.00;58.00;;;;;;5023040;28;20045;-46
2022/10/31 10:48:11;;;;;;;11.10;4.60;;;18.10;57.90;;;;;;5031108;28;20064;-47
2022/10/31 10:50:45;;;;;;;10.88;5.18;;;18.20;57.70;;;;;;5022981;28;20056;-50
2022/10/31 10:53:31;;;;;;;13.98;4.68;;;18.20;57.70;;;;;;5022830;28;20060;-48
2022/10/31 10:56:08;;;;;;;9.63;4.10;;;18.20;57.60;;;;;;5023424;28;20061;-50
2022/10/31 10:58:36;;;;;;;11.20;4.88;;;18.30;57.60;;;;;;5024648;28;20053;-51
2022/10/31 11:01:12;;;;;;;7.32;4.32;;;18.30;57.60;;;;;;5022897;28;20055;-49
2022/10/31 11:03:41;;;;;;;9.55;4.47;;;18.40;57.70;;;;;;5021914;28;20056;-49
2022/10/31 11:06:21;;;;;;;9.25;4.70;;;18.40;57.60;;;;;;5023986;28;20062;-51
2022/10/31 11:08:49;;;;;;;16.75;5.28;;;18.50;57.60;;;;;;5021935;28;20049;-48
2022/10/31 11:11:26;;;;;;;9.88;4.90;;;18.50;57.50;;;;;;5022604;28;20064;-51
2022/10/31 11:14:00;;;;;;;7.75;4.07;;;18.50;57.40;;;;;;5023877;28;20057;-48
2022/10/31 11:16:30;;;;;;;13.68;4.97;;;18.60;57.40;;;;;;5022999;28;20053;-47
2022/10/31 11:19:14;;;;;;;11.55;5.22;;;18.70;57.40;;;;;;5022415;28;20076;-51
2022/10/31 11:21:42;;;;;;;12.00;5.13;;;18.70;57.10;;;;;;5022410;28;20489;-48
2022/10/31 11:24:16;;;;;;;8.55;4.63;;;18.80;57.00;;;;;;5020916;28;20433;-49
2022/10/31 11:26:45;;;;;;;16.35;5.10;;;18.80;56.90;;;;;;5021087;28;20041;-47
2022/10/31 11:29:16;;;;;;;12.38;5.65;;;18.80;56.80;;;;;;5022608;28;20053;-46
2022/10/31 11:31:46;;;;;;;11.35;5.45;;;18.80;56.70;;;;;;5019129;28;20057;-48
2022/10/31 11:34:29;;;;;;;14.77;4.80;;;18.90;56.70;;;;;;5022601;28;20056;-49
2022/10/31 11:37:02;;;;;;;14.38;4.35;;;18.90;56.60;;;;;;5023810;28;20494;-50
2022/10/31 11:39:30;;;;;;;8.80;4.60;;;18.90;56.50;;;;;;5020552;28;20057;-49
2022/10/31 11:42:02;;;;;;;17.77;5.20;;;19.00;56.60;;;;;;5022749;28;21737;-45
2022/10/31 11:44:32;;;;;;;21.67;5.05;;;19.00;56.50;;;;;;5023374;28;20486;-44
2022/10/31 11:47:02;;;;;;;15.70;5.18;;;19.00;56.50;;;;;;5022322;28;20057;-48
2022/10/31 11:49:35;;;;;;;11.15;4.88;;;19.10;56.60;;;;;;5022823;28;20060;-47
2022/10/31 11:52:06;;;;;;;14.05;5.15;;;19.10;56.50;;;;;;5021235;28;20509;-46
2022/10/31 11:54:46;;;;;;;11.93;4.50;;;19.10;56.40;;;;;;5021339;28;20053;-49
2022/10/31 11:57:25;;;;;;;9.77;4.65;;;19.20;56.30;;;;;;5021040;28;20065;-49
2022/10/31 11:59:54;;;;;;;8.25;4.65;;;19.20;56.20;;;;;;5021441;28;20582;-49
2022/10/31 12:02:22;;;;;;;9.38;4.57;;;19.30;56.30;;;;;;5020656;28;20053;-50
2022/10/31 12:04:59;;;;;;;12.27;4.63;;;19.30;56.30;;;;;;5017858;28;20058;-48
2022/10/31 12:07:26;;;;;;;10.25;4.78;;;19.30;56.20;;;;;;5017139;28;20065;-47
2022/10/31 12:09:53;;;;;;;11.65;4.88;;;19.40;56.20;;;;;;5015493;28;20493;-48
2022/10/31 12:12:45;;;;;;;8.60;4.55;;;19.40;56.20;;;;;;5021001;28;20053;-47
2022/10/31 12:15:32;;;;;;;9.90;4.10;;;19.40;56.10;;;;;;5021150;28;20053;-50
2022/10/31 12:18:32;;;;;;;11.73;4.88;;;19.50;56.00;;;;;;5017554;28;20057;-48
2022/10/31 12:21:14;;;;;;;13.00;4.72;;;19.50;55.90;;;;;;5021426;28;20397;-45
2022/10/31 12:23:51;;;;;;;15.77;4.70;;;19.60;55.90;;;;;;5022195;28;20084;-46
2022/10/31 12:26:24;;;;;;;10.27;4.68;;;19.60;55.70;;;;;;5022222;28;20062;-49
2022/10/31 12:29:13;;;;;;;9.07;4.30;;;19.60;55.60;;;;;;5022950;28;20061;-47
2022/10/31 12:31:50;;;;;;;9.40;4.70;;;19.60;55.60;;;;;;5021834;28;20409;-50
2022/10/31 12:34:46;;;;;;;9.48;4.93;;;19.60;55.50;;;;;;5023052;28;20457;-50
2022/10/31 12:37:26;;;;;;;8.55;4.35;;;19.70;55.50;;;;;;5017129;28;20502;-45
2022/10/31 12:40:04;;;;;;;8.93;4.05;;;19.80;55.50;;;;;;5019030;28;20489;-49
2022/10/31 12:42:47;;;;;;;8.73;4.60;;;19.80;55.40;;;;;;5023145;28;20116;-46
2022/10/31 12:45:34;;;;;;;9.32;4.28;;;19.80;55.30;;;;;;5021898;28;20140;-49
2022/10/31 12:48:18;;;;;;;14.18;4.85;;;19.80;55.20;;;;;;5022298;28;20054;-47
2022/10/31 12:51:00;;;;;;;9.80;4.10;;;19.80;55.10;;;;;;5021372;28;20054;-47
2022/10/31 12:53:42;;;;;;;9.80;4.38;;;19.90;55.20;;;;;;5022128;28;20058;-50
2022/10/31 12:56:19;;;;;;;12.77;4.20;;;19.90;55.20;;;;;;5022792;28;20065;-49
2022/10/31 12:58:51;;;;;;;10.80;4.38;;;19.90;55.30;;;;;;5022982;28;20064;-48
2022/10/31 13:01:23;;;;;;;9.82;4.07;;;19.90;55.20;;;;;;5020309;28;20049;-51
2022/10/31 13:03:58;;;;;;;10.05;4.38;;;20.00;55.20;;;;;;5021328;28;20410;-48